Time;durP1;ratioP1;P1;durP2;ratioP2;P2;SDS_P1;SDS_P2;PMS_P1;PMS_P2;Temp;Humidity;BMP_temperature;BMP_pressure;BME280_temperature;BME280_humidity;BME280_pressure;Samples;Min_cycle;Max_cycle;Signal;HPM_P1;HPM_P2
2021/12/05 00:20:31;;;;;;;0.30;0.30;;;;;;;7.95;100.00;94719.66;5150273;27;20925;-53
2021/12/05 00:23:01;;;;;;;0.83;0.83;;;;;;;8.35;100.00;94759.19;5150290;27;20517;-52
2021/12/05 00:25:32;;;;;;;3.50;0.73;;;;;;;8.49;100.00;94752.28;5149840;27;20473;-52
2021/12/05 00:28:24;;;;;;;0.40;0.30;;;;;;;8.07;100.00;94723.59;5149607;27;20982;-52
2021/12/05 00:33:57;;;;;;;0.40;0.33;;;;;;;8.05;100.00;94753.94;5150090;27;20437;-52
2021/12/05 00:39:38;;;;;;;0.40;0.23;;;;;;;8.02;100.00;94749.22;5149784;27;20434;-53
2021/12/05 00:47:59;;;;;;;0.30;0.20;;;;;;;8.07;100.00;94733.38;5146135;27;20459;-53
2021/12/05 00:56:13;;;;;;;0.50;0.50;;;;;;;8.21;100.00;94740.47;5140417;27;20926;-53
2021/12/05 01:04:44;;;;;;;0.40;0.30;;;;;;;7.98;100.00;94748.16;5135755;27;20468;-53
2021/12/05 01:10:12;;;;;;;0.30;0.30;;;;;;;8.18;100.00;94742.81;5117465;27;20472;-53
2021/12/05 01:13:25;;;;;;;0.30;0.20;;;;;;;7.36;100.00;94664.84;5134992;27;20438;-53
2021/12/05 01:15:55;;;;;;;0.30;0.20;;;;;;;7.76;100.00;94745.00;5135827;27;20518;-53
2021/12/05 01:18:25;;;;;;;0.90;0.90;;;;;;;7.00;100.00;94744.97;5135396;27;21115;-53
2021/12/05 01:20:58;;;;;;;2.70;0.97;;;;;;;6.79;100.00;94754.66;5135095;27;20418;-53
2021/12/05 01:23:36;;;;;;;0.53;0.37;;;;;;;7.31;100.00;94745.81;5134821;27;20487;-53
2021/12/05 01:26:09;;;;;;;0.40;0.30;;;;;;;7.73;100.00;94753.44;5135340;27;20430;-53
2021/12/05 01:28:55;;;;;;;2.60;0.83;;;;;;;7.65;100.00;94752.94;5134463;27;20538;-53
2021/12/05 01:31:33;;;;;;;0.30;0.30;;;;;;;7.32;100.00;94682.28;5134989;27;20521;-52
2021/12/05 01:34:14;;;;;;;1.33;0.70;;;;;;;7.85;100.00;94746.06;5135465;27;20423;-52
2021/12/05 01:36:54;;;;;;;0.30;0.20;;;;;;;7.89;100.00;94741.84;5135071;27;20481;-52
2021/12/05 01:39:34;;;;;;;0.30;0.30;;;;;;;7.34;100.00;94750.53;5134845;27;20518;-52
2021/12/05 01:42:56;;;;;;;0.63;0.63;;;;;;;7.12;100.00;94740.25;5135188;27;20517;-53
2021/12/05 01:54:14;;;;;;;0.30;0.30;;;;;;;7.40;100.00;94745.00;5134355;27;20938;-53
2021/12/05 02:08:20;;;;;;;1.13;0.90;;;;;;;7.07;100.00;94641.94;5133647;27;20494;-52
2021/12/05 02:11:08;;;;;;;8.57;0.60;;;;;;;7.69;100.00;94732.88;5134062;27;20435;-52
2021/12/05 02:33:12;;;;;;;0.40;0.40;;;;;;;8.03;100.00;94725.19;5124780;27;20517;-53
2021/12/05 02:35:57;;;;;;;0.97;0.97;;;;;;;8.03;100.00;94722.56;5133897;27;20517;-53
2021/12/05 02:41:18;;;;;;;4.23;0.60;;;;;;;7.97;100.00;94665.56;5133626;27;20906;-53
2021/12/05 02:43:49;;;;;;;0.30;0.20;;;;;;;8.37;100.00;94717.47;5133588;27;20518;-53
2021/12/05 02:46:22;;;;;;;0.57;0.53;;;;;;;8.49;100.00;94715.31;5133218;27;21062;-53
2021/12/05 02:48:50;;;;;;;0.30;0.20;;;;;;;8.08;100.00;94661.84;5133653;27;20914;-53
2021/12/05 02:51:22;;;;;;;1.77;0.97;;;;;;;8.14;100.00;94720.69;5133950;27;20506;-53
2021/12/05 02:54:02;;;;;;;0.40;0.27;;;;;;;7.89;100.00;94715.47;5133694;27;20451;-53
2021/12/05 02:56:34;;;;;;;1.23;1.23;;;;;;;7.88;100.00;94717.31;5133478;27;20430;-53
2021/12/05 02:59:07;;;;;;;1.07;0.37;;;;;;;8.02;100.00;94717.56;5132945;27;20509;-53
2021/12/05 03:01:40;;;;;;;0.80;0.80;;;;;;;8.23;100.00;94716.41;5133495;27;20462;-53
2021/12/05 03:04:09;;;;;;;0.83;0.83;;;;;;;8.27;100.00;94717.50;5132858;27;20426;-53
2021/12/05 03:06:48;;;;;;;0.40;0.30;;;;;;;7.89;100.00;94716.25;5133679;27;20493;-53
2021/12/05 03:09:21;;;;;;;1.60;1.50;;;;;;;6.67;100.00;94629.53;5133445;27;20422;-53
2021/12/05 03:11:51;;;;;;;0.77;0.77;;;;;;;7.65;100.00;94715.22;5132683;27;20462;-53
2021/12/05 03:14:20;;;;;;;0.40;0.40;;;;;;;7.89;100.00;94716.25;5133236;27;20446;-53
2021/12/05 03:16:50;;;;;;;1.03;0.97;;;;;;;6.99;100.00;94619.56;5133655;27;20411;-53
2021/12/05 03:19:19;;;;;;;0.93;0.93;;;;;;;7.31;100.00;94720.22;5132733;27;20510;-53
2021/12/05 03:21:50;;;;;;;0.70;0.43;;;;;;;7.47;100.00;94721.81;5133310;27;20517;-53
2021/12/05 03:24:21;;;;;;;2.07;2.00;;;;;;;7.87;100.00;94718.34;5132307;27;20438;-53
2021/12/05 03:26:53;;;;;;;0.30;0.30;;;;;;;7.93;100.00;94663.72;5132305;27;20851;-53
2021/12/05 03:29:23;;;;;;;0.63;0.63;;;;;;;8.20;100.00;94723.03;5133020;27;20875;-53
2021/12/05 03:31:53;;;;;;;0.60;0.60;;;;;;;7.81;100.00;94714.16;5132872;27;20518;-53
2021/12/05 03:34:22;;;;;;;1.13;1.13;;;;;;;8.03;100.00;94711.19;5132992;27;20427;-53
2021/12/05 03:36:56;;;;;;;0.30;0.20;;;;;;;8.02;100.00;94714.91;5133004;27;20949;-53
2021/12/05 03:39:27;;;;;;;0.40;0.40;;;;;;;8.21;100.00;94702.72;5132985;27;20517;-53
2021/12/05 03:41:57;;;;;;;0.83;0.83;;;;;;;7.99;100.00;94718.06;5132891;27;20422;-53
2021/12/05 03:44:29;;;;;;;0.33;0.30;;;;;;;7.97;100.00;94697.22;5131962;28;20835;-53
2021/12/05 03:46:59;;;;;;;2.00;0.50;;;;;;;8.46;100.00;94726.41;5132070;27;20466;-53
2021/12/05 03:49:29;;;;;;;0.40;0.40;;;;;;;8.14;100.00;94678.44;5132277;28;20427;-53
2021/12/05 03:52:00;;;;;;;3.63;0.70;;;;;;;8.52;100.00;94743.03;5131901;27;20435;-52
2021/12/05 03:54:31;;;;;;;0.70;0.70;;;;;;;8.50;100.00;94724.78;5132647;27;20450;-53
2021/12/05 03:57:00;;;;;;;1.23;0.80;;;;;;;8.70;100.00;94730.00;5132719;28;20477;-53
2021/12/05 03:59:29;;;;;;;1.50;1.50;;;;;;;8.47;100.00;94729.84;5132850;27;20419;-53
2021/12/05 04:02:01;;;;;;;2.40;2.10;;;;;;;8.16;100.00;94732.56;5132970;28;20510;-53
2021/12/05 04:04:30;;;;;;;0.43;0.43;;;;;;;8.10;100.00;94736.25;5132740;27;20502;-53
2021/12/05 04:06:59;;;;;;;2.00;1.90;;;;;;;8.20;100.00;94743.34;5132698;28;20474;-53
2021/12/05 04:09:28;;;;;;;0.70;0.67;;;;;;;8.41;100.00;94737.00;5133004;28;20459;-52
2021/12/05 04:12:03;;;;;;;0.40;0.30;;;;;;;8.31;100.00;94686.84;5132658;28;20551;-53
2021/12/05 04:14:35;;;;;;;0.70;0.37;;;;;;;8.69;100.00;94741.63;5132293;28;20426;-53
2021/12/05 04:17:06;;;;;;;0.50;0.50;;;;;;;8.20;100.00;94743.34;5132204;28;20419;-53
2021/12/05 04:19:35;;;;;;;1.83;1.73;;;;;;;7.83;100.00;94758.72;5132788;28;20454;-53
2021/12/05 04:22:05;;;;;;;0.80;0.80;;;;;;;7.67;100.00;94771.13;5132490;27;20480;-53
2021/12/05 04:24:35;;;;;;;1.63;1.63;;;;;;;7.54;100.00;94769.00;5132452;28;20458;-53
2021/12/05 04:27:07;;;;;;;0.40;0.40;;;;;;;8.03;100.00;94759.50;5132841;27;20537;-53
2021/12/05 04:29:36;;;;;;;0.37;0.33;;;;;;;8.30;100.00;94749.44;5132333;27;20987;-53
2021/12/05 04:32:06;;;;;;;1.10;1.10;;;;;;;8.29;100.00;94763.69;5135974;27;20501;-53
2021/12/05 04:34:35;;;;;;;3.20;0.43;;;;;;;8.43;100.00;94720.88;5136299;27;20427;-53
2021/12/05 04:37:04;;;;;;;1.87;1.80;;;;;;;8.72;100.00;94762.25;5136264;27;20993;-53
2021/12/05 04:39:33;;;;;;;0.70;0.60;;;;;;;8.67;100.00;94762.25;5136029;27;20458;-53
2021/12/05 04:42:01;;;;;;;0.50;0.40;;;;;;;8.60;100.00;94759.09;5136227;27;20461;-53
2021/12/05 04:44:32;;;;;;;1.90;1.27;;;;;;;8.29;100.00;94757.63;5135806;27;20557;-53
2021/12/05 04:47:01;;;;;;;1.03;1.03;;;;;;;8.13;100.00;94764.75;5136119;27;20502;-53
2021/12/05 04:49:29;;;;;;;0.83;0.83;;;;;;;8.32;100.00;94762.38;5136395;27;20596;-53
2021/12/05 04:51:59;;;;;;;2.87;2.53;;;;;;;7.97;100.00;94765.06;5135899;27;20475;-53
2021/12/05 04:54:27;;;;;;;0.97;0.97;;;;;;;8.18;100.00;94764.75;5135926;27;20454;-53
2021/12/05 04:56:56;;;;;;;8.97;3.23;;;;;;;8.59;100.00;94765.44;5135709;27;20446;-53
2021/12/05 04:59:26;;;;;;;0.80;0.80;;;;;;;8.36;100.00;94771.34;5135192;27;20451;-53
2021/12/05 05:01:58;;;;;;;0.67;0.67;;;;;;;8.21;100.00;94761.56;5135710;27;20430;-53
2021/12/05 05:04:28;;;;;;;4.23;0.87;;;;;;;8.17;100.00;94739.41;5135808;27;20510;-53
2021/12/05 05:07:00;;;;;;;0.90;0.90;;;;;;;8.64;100.00;94765.44;5135604;27;20565;-53
2021/12/05 05:09:29;;;;;;;1.47;1.20;;;;;;;8.39;100.00;94778.72;5135468;27;20868;-53
2021/12/05 05:11:57;;;;;;;0.57;0.57;;;;;;;8.66;100.00;94788.94;5135286;27;20427;-53
2021/12/05 05:14:26;;;;;;;0.83;0.83;;;;;;;8.86;100.00;94787.00;5135003;27;20503;-53
2021/12/05 05:16:56;;;;;;;0.47;0.40;;;;;;;9.02;100.00;94777.16;5135388;27;20433;-53
2021/12/05 05:19:29;;;;;;;0.97;0.97;;;;;;;9.02;100.00;94773.72;5135401;27;20499;-53
2021/12/05 05:22:05;;;;;;;0.40;0.30;;;;;;;8.88;100.00;94771.66;5135227;27;20427;-53
2021/12/05 05:27:48;;;;;;;0.90;0.47;;;;;;;8.84;100.00;94775.91;5117043;27;20931;-53
2021/12/05 05:46:55;;;;;;;0.40;0.40;;;;;;;9.00;100.00;94802.28;5111441;27;20556;-54
2021/12/05 05:49:33;;;;;;;0.40;0.40;;;;;;;9.04;100.00;94801.47;5134303;27;20471;-54
2021/12/05 05:52:02;;;;;;;0.30;0.30;;;;;;;9.12;100.00;94795.59;5135138;27;20426;-54
2021/12/05 05:54:30;;;;;;;0.70;0.70;;;;;;;9.14;100.00;94813.81;5134925;27;20517;-54
2021/12/05 05:57:06;;;;;;;1.73;1.63;;;;;;;9.24;100.00;94825.16;5134747;27;20502;-54
2021/12/05 05:59:43;;;;;;;0.40;0.40;;;;;;;9.24;100.00;94816.41;5134638;27;20457;-54
2021/12/05 06:04:58;;;;;;;0.97;0.97;;;;;;;8.94;100.00;94756.56;5134157;27;20796;-54
2021/12/05 06:07:27;;;;;;;1.13;0.53;;;;;;;8.95;100.00;94811.78;5134514;27;20836;-53
2021/12/05 06:09:56;;;;;;;0.70;0.67;;;;;;;9.01;100.00;94809.94;5134528;27;20564;-53
2021/12/05 06:12:24;;;;;;;0.70;0.63;;;;;;;8.81;100.00;94833.78;5134412;27;20458;-53
2021/12/05 06:14:53;;;;;;;0.50;0.50;;;;;;;8.67;100.00;94783.41;5134223;27;20483;-53
2021/12/05 06:17:21;;;;;;;0.50;0.50;;;;;;;8.42;100.00;94778.19;5134245;27;20491;-53
2021/12/05 06:19:51;;;;;;;1.20;1.13;;;;;;;9.24;100.00;94842.88;5134228;27;20426;-53
2021/12/05 06:22:21;;;;;;;0.30;0.30;;;;;;;9.21;100.00;94827.56;5133851;27;20487;-53
2021/12/05 06:24:49;;;;;;;1.27;0.50;;;;;;;9.35;100.00;94831.97;5133562;27;20454;-53
2021/12/05 06:27:18;;;;;;;0.70;0.70;;;;;;;9.55;100.00;94842.44;5134357;27;20469;-53
2021/12/05 06:29:52;;;;;;;0.30;0.20;;;;;;;9.36;100.00;94851.28;5134029;27;20480;-53
2021/12/05 06:38:06;;;;;;;0.40;0.40;;;;;;;9.46;100.00;94788.53;5133886;27;20466;-53
2021/12/05 06:40:49;;;;;;;1.43;1.00;;;;;;;9.77;100.00;94835.94;5133761;27;20426;-53
2021/12/05 06:46:04;;;;;;;0.87;0.87;;;;;;;9.58;100.00;94841.09;5133475;27;20518;-53
2021/12/05 06:48:33;;;;;;;1.33;1.23;;;;;;;9.23;100.00;94842.09;5133753;27;20462;-53
2021/12/05 06:51:01;;;;;;;3.60;3.50;;;;;;;9.06;100.00;94835.56;5133518;27;20434;-53
2021/12/05 06:53:32;;;;;;;10.30;1.83;;;;;;;9.14;100.00;94822.56;5133449;27;20495;-53
2021/12/05 06:56:00;;;;;;;0.50;0.50;;;;;;;9.45;100.00;94831.13;5133560;27;20434;-53
2021/12/05 06:58:29;;;;;;;0.70;0.70;;;;;;;9.26;100.00;94807.16;5133480;27;20418;-53
2021/12/05 07:00:58;;;;;;;1.23;1.23;;;;;;;9.42;100.00;94839.59;5133414;27;20422;-51
2021/12/05 07:03:32;;;;;;;1.60;1.50;;;;;;;9.45;100.00;94831.91;5133495;27;20429;-53
2021/12/05 07:06:04;;;;;;;1.17;1.17;;;;;;;10.18;100.00;94832.75;5133553;27;20423;-53
2021/12/05 07:08:36;;;;;;;0.77;0.77;;;;;;;10.28;100.00;94842.47;5133204;27;20524;-53
2021/12/05 07:11:13;;;;;;;3.60;0.67;;;;;;;9.69;100.00;94858.47;5132422;27;20427;-53
2021/12/05 07:14:12;;;;;;;2.70;1.83;;;;;;;9.55;100.00;94866.25;5132677;27;20518;-53
2021/12/05 07:16:46;;;;;;;1.70;1.70;;;;;;;9.28;100.00;94865.88;5132003;27;20442;-53
2021/12/05 07:19:31;;;;;;;1.17;1.17;;;;;;;9.17;100.00;94859.03;5133274;27;20446;-53
2021/12/05 07:22:03;;;;;;;2.30;2.20;;;;;;;9.40;100.00;94865.53;5133148;27;20472;-53
2021/12/05 07:24:42;;;;;;;0.80;0.80;;;;;;;8.93;100.00;94869.41;5133128;27;20957;-53
2021/12/05 07:41:06;;;;;;;0.30;0.30;;;;;;;8.48;100.00;94876.66;5130849;27;20954;-53
2021/12/05 07:43:34;;;;;;;0.80;0.80;;;;;;;9.02;100.00;94867.03;5130494;28;20478;-53
2021/12/05 07:46:06;;;;;;;1.67;1.60;;;;;;;9.11;100.00;94864.63;5130624;28;21022;-53
2021/12/05 07:48:38;;;;;;;2.17;0.90;;;;;;;9.52;100.00;94866.00;5130922;28;20458;-53
2021/12/05 07:51:12;;;;;;;0.30;0.20;;;;;;;9.99;100.00;94860.16;5130891;27;20957;-53
2021/12/05 07:53:49;;;;;;;0.73;0.73;;;;;;;9.89;100.00;94871.59;5131468;28;20458;-53
2021/12/05 07:56:29;;;;;;;0.30;0.20;;;;;;;10.54;100.00;94866.88;5131565;28;20930;-53
2021/12/05 07:59:13;;;;;;;0.60;0.60;;;;;;;10.66;100.00;94838.91;5131857;27;20426;-53
2021/12/05 08:15:40;;;;;;;0.60;0.60;;;;;;;11.38;100.00;94824.53;5136504;27;20483;-54
2021/12/05 08:18:09;;;;;;;0.50;0.50;;;;;;;11.66;100.00;94840.63;5136980;27;20406;-54
2021/12/05 08:20:40;;;;;;;0.60;0.57;;;;;;;11.59;100.00;94866.72;5136524;27;20450;-54
2021/12/05 08:23:12;;;;;;;1.43;1.33;;;;;;;11.38;100.00;94863.56;5136818;27;20430;-54
2021/12/05 08:25:44;;;;;;;2.53;1.67;;;;;;;11.92;100.00;94855.13;5136414;27;20964;-54
2021/12/05 08:28:27;;;;;;;0.67;0.50;;;;;;;12.77;100.00;94852.16;5136573;27;20517;-54
2021/12/05 08:31:06;;;;;;;2.97;1.20;;;;;;;12.73;100.00;94850.06;5136387;27;20422;-54
2021/12/05 08:33:48;;;;;;;0.97;0.97;;;;;;;13.17;100.00;94851.41;5136097;27;20798;-53
2021/12/05 08:36:42;;;;;;;2.40;2.30;;;;;;;13.26;100.00;94860.25;5136390;27;20449;-54
2021/12/05 08:42:29;;;;;;;2.97;0.60;;;;;;;13.86;93.24;94852.91;5136317;27;20499;-54
2021/12/05 08:45:42;;;;;;;0.77;0.77;;;;;;;13.86;90.80;94829.69;5135945;27;20493;-54
2021/12/05 10:06:42;;;;;;;0.50;0.50;;;;;;;11.50;100.00;94757.78;5109607;27;20427;-55
2021/12/05 10:06:49;;;;;;;1.07;0.73;;;;;;;11.33;100.00;94766.22;5134488;27;20483;-54
2021/12/05 10:12:32;;;;;;;0.80;0.60;;;;;;;12.24;100.00;94756.09;5134361;27;20430;-54
2021/12/05 10:15:19;;;;;;;2.73;1.80;;;;;;;11.65;100.00;94768.16;5134110;27;20988;-54
2021/12/05 10:18:26;;;;;;;0.77;0.60;;;;;;;11.66;100.00;94699.94;5134032;27;20427;-54
2021/12/05 10:26:57;;;;;;;0.50;0.50;;;;;;;13.64;97.10;94669.88;5134092;27;20819;-55
2021/12/05 10:35:25;;;;;;;0.50;0.50;;;;;;;15.86;83.50;94727.69;5134034;27;20429;-56
2021/12/05 10:38:01;;;;;;;5.23;2.20;;;;;;;17.14;68.39;94719.25;5134241;27;20853;-57
2021/12/05 10:40:36;;;;;;;1.57;1.30;;;;;;;18.00;64.14;94713.25;5133737;27;20487;-59
2021/12/05 10:43:13;;;;;;;0.70;0.70;;;;;;;18.44;57.30;94710.91;5133826;27;20418;-60
2021/12/05 10:45:43;;;;;;;0.60;0.50;;;;;;;17.08;61.36;94707.16;5133590;27;20466;-60
2021/12/05 10:48:20;;;;;;;1.50;1.47;;;;;;;18.05;60.62;94709.56;5133841;27;20458;-58
2021/12/05 10:50:52;;;;;;;0.60;0.60;;;;;;;19.67;54.43;94709.44;5133647;27;20446;-56
2021/12/05 10:53:27;;;;;;;1.40;1.07;;;;;;;19.08;53.27;94660.81;5133516;27;20929;-56
2021/12/05 10:56:00;;;;;;;2.03;1.93;;;;;;;18.82;52.30;94709.50;5133362;27;20450;-55
2021/12/05 10:58:40;;;;;;;0.87;0.87;;;;;;;19.86;50.83;94698.06;5133703;27;20505;-54
2021/12/05 11:01:16;;;;;;;6.63;1.43;;;;;;;19.39;50.11;94701.34;5133259;27;20419;-54
2021/12/05 11:03:47;;;;;;;2.23;0.90;;;;;;;19.95;49.75;94691.41;5133262;27;20465;-54
2021/12/05 11:06:21;;;;;;;0.73;0.70;;;;;;;18.73;51.15;94649.00;5133212;27;20419;-54
2021/12/05 11:08:54;;;;;;;1.70;1.60;;;;;;;18.12;54.59;94699.09;5133180;27;20568;-54
2021/12/05 11:11:23;;;;;;;0.70;0.47;;;;;;;17.14;60.82;94692.47;5133181;27;20882;-54
2021/12/05 11:13:54;;;;;;;0.60;0.60;;;;;;;17.32;64.84;94693.13;5133120;27;20415;-54
2021/12/05 11:16:38;;;;;;;0.50;0.40;;;;;;;18.31;59.69;94669.84;5133315;27;20449;-54
2021/12/05 11:19:13;;;;;;;0.70;0.70;;;;;;;18.02;57.07;94664.63;5133114;27;20414;-54
2021/12/05 11:21:47;;;;;;;0.50;0.40;;;;;;;18.46;57.26;94660.38;5133466;27;20448;-54
2021/12/05 11:24:22;;;;;;;1.40;0.70;;;;;;;18.25;53.28;94520.97;5133129;27;20494;-54
2021/12/05 11:27:11;;;;;;;1.37;1.33;;;;;;;19.44;51.41;94650.03;5133108;27;20512;-54
2021/12/05 11:29:48;;;;;;;0.73;0.70;;;;;;;18.70;52.89;94655.81;5133318;27;20835;-54
2021/12/05 11:32:19;;;;;;;0.43;0.43;;;;;;;17.71;58.10;94651.69;5133310;27;20461;-55
2021/12/05 11:34:48;;;;;;;4.77;1.07;;;;;;;17.77;56.77;94572.66;5133219;27;20434;-54
2021/12/05 11:37:17;;;;;;;0.70;0.70;;;;;;;18.12;57.89;94653.50;5132895;27;20800;-54
2021/12/05 11:39:46;;;;;;;1.87;1.77;;;;;;;16.64;59.63;94637.34;5133033;27;20454;-54
2021/12/05 11:42:18;;;;;;;1.27;1.23;;;;;;;16.35;66.02;94662.94;5132800;27;20430;-57
2021/12/05 11:44:54;;;;;;;1.10;0.67;;;;;;;16.65;62.65;94657.63;5132356;27;20506;-56
2021/12/05 11:47:24;;;;;;;1.17;1.17;;;;;;;17.25;59.55;94646.56;5133058;28;20418;-55
2021/12/05 11:49:52;;;;;;;1.00;0.50;;;;;;;17.31;61.15;94643.34;5133095;27;20458;-55
2021/12/05 11:52:25;;;;;;;1.03;1.03;;;;;;;16.24;65.85;94650.25;5133029;28;20414;-55
2021/12/05 11:54:53;;;;;;;0.50;0.40;;;;;;;16.61;63.46;94636.09;5133053;28;20760;-55
2021/12/05 11:57:25;;;;;;;3.97;2.00;;;;;;;16.23;65.68;94643.31;5132846;28;20476;-56
2021/12/05 11:59:57;;;;;;;0.70;0.70;;;;;;;15.75;68.59;94623.03;5133035;28;20847;-57
2021/12/05 12:02:27;;;;;;;1.57;1.50;;;;;;;15.16;77.75;94629.19;5132566;28;20479;-58
2021/12/05 12:04:58;;;;;;;1.37;0.70;;;;;;;15.45;74.01;94575.13;5132696;28;20514;-58
2021/12/05 12:07:35;;;;;;;0.77;0.50;;;;;;;15.22;76.44;94619.94;5132749;27;20971;-58
2021/12/05 12:10:09;;;;;;;0.80;0.57;;;;;;;14.45;83.57;94627.81;5132801;28;20861;-58
2021/12/05 12:12:38;;;;;;;1.07;0.67;;;;;;;14.87;81.35;94616.47;5132406;28;20422;-58
2021/12/05 12:15:09;;;;;;;0.40;0.30;;;;;;;14.81;78.62;94569.69;5132654;28;20486;-57
2021/12/05 12:17:38;;;;;;;2.30;0.50;;;;;;;15.44;75.15;94590.38;5132639;28;20430;-57
2021/12/05 12:20:11;;;;;;;0.40;0.30;;;;;;;14.69;80.80;94606.88;5132568;27;20450;-57
2021/12/05 12:22:40;;;;;;;0.77;0.60;;;;;;;14.54;84.94;94602.78;5132442;28;20438;-56
2021/12/05 12:25:15;;;;;;;1.00;0.60;;;;;;;14.64;83.36;94593.69;5132506;28;20492;-56
2021/12/05 12:27:46;;;;;;;0.67;0.53;;;;;;;14.73;84.20;94585.66;5132530;28;20442;-56
2021/12/05 12:30:24;;;;;;;8.03;0.47;;;;;;;14.86;83.05;94598.09;5132324;28;20494;-56
2021/12/05 12:32:59;;;;;;;0.43;0.30;;;;;;;15.63;78.49;94596.19;5132453;27;20426;-57
2021/12/05 12:35:29;;;;;;;1.17;0.70;;;;;;;15.96;75.43;94593.75;5132493;27;20502;-56
2021/12/05 12:38:03;;;;;;;2.50;1.20;;;;;;;16.72;67.57;94591.78;5132394;28;20999;-56
2021/12/05 12:40:37;;;;;;;4.43;0.90;;;;;;;17.23;63.21;94542.41;5132333;28;20467;-58
2021/12/05 12:43:07;;;;;;;0.60;0.60;;;;;;;17.95;58.99;94589.31;5132481;27;20450;-57
2021/12/05 12:45:42;;;;;;;6.47;2.57;;;;;;;17.67;61.22;94579.22;5132748;27;20427;-58
2021/12/05 12:48:12;;;;;;;1.80;1.33;;;;;;;17.32;61.40;94582.53;5132344;28;20472;-58
2021/12/05 12:50:51;;;;;;;0.70;0.70;;;;;;;17.87;60.58;94580.28;5132527;27;20557;-58
2021/12/05 12:53:23;;;;;;;0.50;0.30;;;;;;;18.87;56.55;94579.63;5136256;27;20428;-57
2021/12/05 12:55:57;;;;;;;0.40;0.33;;;;;;;18.90;54.50;94573.56;5135858;27;20476;-57
2021/12/05 12:58:50;;;;;;;0.70;0.63;;;;;;;19.55;52.25;94572.38;5136236;27;20500;-55
2021/12/05 13:07:24;;;;;;;0.60;0.60;;;;;;;17.77;59.00;94572.66;5124729;27;20882;-54
2021/12/05 13:10:02;;;;;;;0.40;0.30;;;;;;;18.37;58.20;94579.97;5135606;27;20516;-54
2021/12/05 13:12:50;;;;;;;0.70;0.70;;;;;;;19.00;55.80;94549.72;5135428;27;20470;-55
2021/12/05 13:15:35;;;;;;;1.37;0.30;;;;;;;19.20;54.04;94580.19;5135600;27;20426;-55
2021/12/05 13:18:30;;;;;;;1.63;1.53;;;;;;;17.74;58.56;94581.34;5135536;27;20506;-56
2021/12/05 13:21:02;;;;;;;1.47;1.37;;;;;;;17.68;58.61;94571.97;5135787;27;20487;-56
2021/12/05 13:23:38;;;;;;;1.20;1.10;;;;;;;17.97;58.50;94581.72;5135692;27;20450;-56
2021/12/05 13:26:26;;;;;;;1.83;1.73;;;;;;;17.80;59.21;94582.72;5134574;27;20832;-57
2021/12/05 13:28:58;;;;;;;1.93;1.83;;;;;;;17.91;57.30;94583.84;5135586;27;20443;-57
2021/12/05 13:31:43;;;;;;;1.90;1.80;;;;;;;16.78;63.43;94570.97;5135138;27;20989;-57
2021/12/05 13:34:47;;;;;;;2.83;1.63;;;;;;;17.37;61.46;94550.97;5134932;27;20423;-56
2021/12/05 13:37:38;;;;;;;3.50;1.47;;;;;;;17.88;56.51;94514.03;5135016;27;20422;-55
2021/12/05 13:40:21;;;;;;;1.37;1.13;;;;;;;17.98;56.33;94522.44;5130170;27;20464;-56
2021/12/05 13:42:54;;;;;;;1.10;1.00;;;;;;;18.44;55.94;94574.06;5135049;27;20505;-56
2021/12/05 13:45:33;;;;;;;1.60;1.50;;;;;;;19.26;52.84;94568.09;5134778;27;20513;-56
2021/12/05 13:48:20;;;;;;;0.93;0.90;;;;;;;19.41;51.35;94575.47;5134806;27;20458;-57
2021/12/05 13:50:57;;;;;;;3.50;1.10;;;;;;;19.69;50.29;94564.69;5134797;27;20973;-57
2021/12/05 13:53:34;;;;;;;1.23;1.13;;;;;;;19.07;51.38;94564.47;5134875;27;20453;-56
2021/12/05 13:56:09;;;;;;;0.70;0.67;;;;;;;18.05;55.34;94567.44;5134815;27;20426;-56
2021/12/05 13:58:47;;;;;;;1.10;0.73;;;;;;;17.18;63.59;94580.13;5134718;27;20446;-57
2021/12/05 14:01:26;;;;;;;0.77;0.77;;;;;;;16.86;64.38;94570.94;5134967;27;20902;-57
2021/12/05 14:04:08;;;;;;;1.33;1.33;;;;;;;16.39;66.37;94570.25;5134912;27;20423;-58
2021/12/05 14:06:53;;;;;;;3.63;2.30;;;;;;;15.92;68.55;94571.41;5134897;27;20483;-59
2021/12/05 14:09:25;;;;;;;1.53;1.43;;;;;;;14.99;76.27;94573.94;5134422;27;20922;-58
2021/12/05 14:12:06;;;;;;;3.27;3.17;;;;;;;14.92;78.42;94573.63;5134568;27;20454;-58
2021/12/05 14:14:38;;;;;;;16.77;3.47;;;;;;;14.52;82.42;94574.84;5134708;27;20457;-57
2021/12/05 14:17:09;;;;;;;9.70;2.00;;;;;;;14.13;89.32;94566.88;5134282;27;20429;-57
2021/12/05 14:19:40;;;;;;;3.87;3.70;;;;;;;14.10;92.74;94583.47;5134341;27;20422;-57
2021/12/05 14:22:13;;;;;;;2.20;1.57;;;;;;;13.00;100.00;94578.00;5134214;27;20443;-58
2021/12/05 14:24:43;;;;;;;20.90;5.50;;;;;;;12.73;100.00;94578.84;5134232;27;20415;-56
2021/12/05 14:27:16;;;;;;;2.20;2.00;;;;;;;12.26;100.00;94582.03;5134069;27;20470;-56
2021/12/05 14:29:46;;;;;;;3.43;3.23;;;;;;;12.12;100.00;94588.44;5134352;27;20433;-56
2021/12/05 14:32:21;;;;;;;2.10;2.00;;;;;;;12.65;100.00;94584.88;5134347;27;20473;-55
2021/12/05 14:34:51;;;;;;;1.63;1.53;;;;;;;13.01;100.00;94578.75;5134072;27;20451;-55
2021/12/05 14:37:24;;;;;;;1.77;1.73;;;;;;;12.32;100.00;94514.38;5133998;27;20872;-55
2021/12/05 14:39:55;;;;;;;1.43;1.27;;;;;;;13.20;100.00;94595.38;5134002;27;20443;-55
2021/12/05 14:42:27;;;;;;;1.00;1.00;;;;;;;13.36;100.00;94601.88;5133753;27;20890;-54
2021/12/05 14:44:59;;;;;;;1.43;1.33;;;;;;;13.50;100.00;94597.28;5133425;27;20557;-54
2021/12/05 14:47:30;;;;;;;7.23;1.43;;;;;;;13.27;100.00;94599.19;5133797;27;20502;-54
2021/12/05 14:50:04;;;;;;;1.33;1.23;;;;;;;13.13;100.00;94589.69;5133563;27;20958;-54
2021/12/05 14:52:37;;;;;;;3.27;2.97;;;;;;;12.22;100.00;94604.16;5133989;27;20426;-54
2021/12/05 14:55:09;;;;;;;7.20;4.50;;;;;;;11.64;100.00;94615.28;5133671;27;20465;-54
2021/12/05 14:57:43;;;;;;;8.27;4.67;;;;;;;11.10;100.00;94607.97;5133493;27;20465;-54
2021/12/05 15:00:15;;;;;;;5.13;3.90;;;;;;;11.34;100.00;94590.06;5133801;27;20469;-54
2021/12/05 15:02:44;;;;;;;2.13;2.03;;;;;;;11.45;100.00;94561.50;5133442;27;20423;-54
2021/12/05 15:05:15;;;;;;;2.80;2.70;;;;;;;10.94;100.00;94606.63;5133716;27;20497;-54
2021/12/05 15:07:46;;;;;;;4.93;4.50;;;;;;;10.69;100.00;94599.84;5133630;27;20469;-54
2021/12/05 15:10:21;;;;;;;3.77;3.57;;;;;;;10.48;100.00;94545.56;5133204;27;20430;-54
2021/12/05 15:12:53;;;;;;;3.03;2.57;;;;;;;11.03;100.00;94593.50;5133754;27;20429;-54
2021/12/05 15:15:23;;;;;;;2.20;2.10;;;;;;;10.91;100.00;94606.41;5133114;27;20861;-54
2021/12/05 15:17:55;;;;;;;1.27;1.27;;;;;;;11.13;100.00;94591.47;5132897;27;20435;-54
2021/12/05 15:20:26;;;;;;;2.40;1.63;;;;;;;10.79;100.00;94543.25;5132160;27;20423;-54
2021/12/05 15:23:01;;;;;;;3.70;2.40;;;;;;;10.95;100.00;94613.53;5131618;27;20452;-52
2021/12/05 15:25:30;;;;;;;1.90;1.80;;;;;;;11.39;100.00;94592.63;5132244;27;20465;-54
2021/12/05 15:28:00;;;;;;;3.80;2.07;;;;;;;11.10;100.00;94580.66;5133303;27;20434;-52
2021/12/05 15:30:30;;;;;;;3.30;2.53;;;;;;;11.11;100.00;94595.50;5130854;27;20495;-53
2021/12/05 15:33:02;;;;;;;5.73;2.60;;;;;;;11.26;100.00;94592.59;5132409;27;20422;-53
2021/12/05 15:35:31;;;;;;;2.63;2.53;;;;;;;10.77;100.00;94595.75;5133029;27;20481;-53
2021/12/05 15:38:04;;;;;;;17.87;3.87;;;;;;;10.67;100.00;94603.84;5133109;27;20454;-53
2021/12/05 15:40:35;;;;;;;4.13;3.50;;;;;;;9.69;100.00;94615.06;5131872;27;20987;-53
2021/12/05 15:43:06;;;;;;;2.80;2.60;;;;;;;9.69;100.00;94601.06;5131622;27;20473;-54
2021/12/05 15:45:36;;;;;;;6.57;3.00;;;;;;;9.82;100.00;94624.19;5132606;27;20517;-53
2021/12/05 15:48:05;;;;;;;3.40;3.13;;;;;;;10.03;100.00;94618.41;5132785;28;20475;-54
2021/12/05 15:50:35;;;;;;;2.70;2.40;;;;;;;10.12;100.00;94624.66;5132442;28;20911;-54
2021/12/05 15:53:07;;;;;;;3.20;2.00;;;;;;;9.85;100.00;94611.19;5131104;28;20418;-53
2021/12/05 15:55:39;;;;;;;3.50;2.53;;;;;;;9.63;100.00;94625.97;5132579;28;20490;-53
2021/12/05 15:58:10;;;;;;;1.93;1.83;;;;;;;9.26;100.00;94637.16;5132776;27;20480;-54
2021/12/05 16:00:41;;;;;;;5.10;2.70;;;;;;;9.09;100.00;94629.63;5132847;28;20465;-52
2021/12/05 16:03:12;;;;;;;2.90;2.60;;;;;;;8.88;100.00;94644.03;5133013;27;20553;-54
2021/12/05 16:05:43;;;;;;;7.03;4.23;;;;;;;8.84;100.00;94654.38;5133308;28;20419;-54
2021/12/05 16:08:15;;;;;;;4.50;4.30;;;;;;;9.05;100.00;94647.09;5132762;28;20461;-53
2021/12/05 16:10:46;;;;;;;9.13;6.47;;;;;;;9.24;100.00;94647.22;5132378;27;20426;-53